Time;durP1;ratioP1;P1;durP2;ratioP2;P2;SDS_P1;SDS_P2;PMS_P1;PMS_P2;Temp;Humidity;BMP_temperature;BMP_pressure;BME280_temperature;BME280_humidity;BME280_pressure;Samples;Min_cycle;Max_cycle;Signal;HPM_P1;HPM_P2
2022/06/17 00:02:02;;;;;;;8.05;7.10;;;;;;;17.32;67.14;102246.78;5015828;28;20042;-79
2022/06/17 00:04:28;;;;;;;10.45;8.05;;;;;;;17.36;66.92;102250.06;5006469;28;20033;-79
2022/06/17 00:07:00;;;;;;;7.50;6.75;;;;;;;17.34;66.63;102250.19;5014787;28;20480;-79
2022/06/17 00:09:28;;;;;;;9.65;6.93;;;;;;;17.33;67.11;102259.22;5012773;28;20389;-79
2022/06/17 00:11:54;;;;;;;9.65;7.47;;;;;;;17.31;66.80;102247.75;5020900;28;20528;-79
2022/06/17 00:14:26;;;;;;;11.88;7.00;;;;;;;17.34;67.12;102252.88;5013614;28;20037;-79
2022/06/17 00:16:51;;;;;;;9.50;7.28;;;;;;;17.34;66.99;102254.72;5008073;28;20042;-78
2022/06/17 00:19:18;;;;;;;12.20;7.40;;;;;;;17.34;67.11;102266.28;4998072;28;20048;-78
2022/06/17 00:21:48;;;;;;;8.13;7.28;;;;;;;17.24;67.55;102261.81;5009484;28;20045;-78
2022/06/17 00:24:19;;;;;;;8.32;7.30;;;;;;;17.29;67.19;102268.50;5008345;28;20030;-78
2022/06/17 00:26:44;;;;;;;9.55;7.97;;;;;;;17.17;68.01;102267.69;5010200;28;20038;-78
2022/06/17 00:29:17;;;;;;;12.55;7.45;;;;;;;17.15;67.42;102274.16;5008091;28;20108;-78
2022/06/17 00:31:42;;;;;;;9.10;7.93;;;;;;;17.14;67.62;102267.94;5009653;28;20041;-79
2022/06/17 00:34:08;;;;;;;9.27;7.65;;;;;;;17.09;66.85;102262.09;5013172;28;20049;-78
2022/06/17 00:36:34;;;;;;;12.57;7.57;;;;;;;17.05;68.33;102262.47;5010254;28;20045;-78
2022/06/17 00:39:00;;;;;;;9.93;7.80;;;;;;;17.03;67.82;102270.66;5017519;28;20116;-78
2022/06/17 00:41:30;;;;;;;8.98;7.93;;;;;;;17.04;67.50;102279.53;5017393;28;20057;-78
2022/06/17 00:43:59;;;;;;;10.32;7.60;;;;;;;17.04;67.43;102285.78;5014938;28;20413;-78
2022/06/17 00:46:34;;;;;;;9.07;7.88;;;;;;;16.99;67.96;102278.09;4998771;28;20113;-78
2022/06/17 00:49:30;;;;;;;8.52;7.50;;;;;;;17.03;66.57;102270.66;4997826;28;20057;-78
2022/06/17 00:52:09;;;;;;;8.35;7.15;;;;;;;16.95;67.61;102271.28;5008369;28;20088;-78
2022/06/17 00:54:43;;;;;;;9.00;6.88;;;;;;;16.96;67.41;102264.06;5019165;28;20025;-78
2022/06/17 00:57:23;;;;;;;8.95;6.78;;;;;;;16.95;67.19;102252.50;5015442;28;20037;-78
2022/06/17 01:00:06;;;;;;;9.18;6.10;;;;;;;16.97;66.11;102253.22;5009613;28;20041;-78
2022/06/17 01:02:36;;;;;;;9.98;6.38;;;;;;;16.90;67.31;102275.31;5015439;28;20022;-79
2022/06/17 01:05:03;;;;;;;7.68;6.70;;;;;;;16.90;68.17;102270.78;5013443;28;20516;-78
2022/06/17 01:07:36;;;;;;;8.63;6.30;;;;;;;16.88;68.15;102261.16;5013782;28;20117;-78
2022/06/17 01:10:09;;;;;;;9.65;6.68;;;;;;;16.85;68.50;102262.25;5017209;28;20033;-78
2022/06/17 01:12:43;;;;;;;8.52;6.15;;;;;;;16.82;68.22;102260.66;5013503;28;20026;-79
2022/06/17 01:15:11;;;;;;;9.68;6.75;;;;;;;16.79;69.07;102257.38;5016870;28;20025;-78
2022/06/17 01:17:39;;;;;;;9.18;6.60;;;;;;;16.77;69.01;102265.53;5018163;28;20030;-78
2022/06/17 01:20:05;;;;;;;7.25;6.47;;;;;;;16.73;69.72;102271.25;5020577;28;20025;-78
2022/06/17 01:22:46;;;;;;;8.15;6.28;;;;;;;16.79;68.14;102268.94;5020060;28;20034;-78
2022/06/17 01:25:17;;;;;;;8.18;6.72;;;;;;;16.74;69.06;102265.78;5007526;28;20512;-78
2022/06/17 01:27:46;;;;;;;9.60;7.00;;;;;;;16.69;69.24;102262.63;5014705;28;20030;-78
2022/06/17 01:30:15;;;;;;;12.25;7.47;;;;;;;16.65;69.31;102258.47;5012111;28;20028;-78
2022/06/17 01:32:51;;;;;;;12.02;7.28;;;;;;;16.58;69.58;102257.25;5019280;28;20030;-78
2022/06/17 01:35:19;;;;;;;8.02;7.03;;;;;;;16.57;69.65;102258.22;5018973;28;20053;-78
2022/06/17 01:37:45;;;;;;;8.20;6.72;;;;;;;16.53;69.98;102260.28;5012454;28;20037;-78
2022/06/17 01:40:11;;;;;;;7.88;6.80;;;;;;;16.45;69.74;102265.41;5019773;28;20025;-78
2022/06/17 01:42:39;;;;;;;8.57;7.53;;;;;;;16.42;70.48;102265.66;5015603;28;20366;-78
2022/06/17 01:45:06;;;;;;;7.93;6.80;;;;;;;16.38;70.28;102262.34;5019676;28;20454;-78
2022/06/17 01:47:32;;;;;;;8.10;6.50;;;;;;;16.43;69.57;102262.00;5014415;28;20491;-78
2022/06/17 01:50:04;;;;;;;9.75;7.20;;;;;;;16.34;69.96;102268.94;5003905;28;20558;-78
2022/06/17 01:52:45;;;;;;;8.05;6.68;;;;;;;16.38;69.26;102267.72;5019573;28;20073;-78
2022/06/17 01:55:15;;;;;;;12.35;7.13;;;;;;;16.29;70.04;102265.78;5021250;28;20053;-78
2022/06/17 01:57:49;;;;;;;8.57;7.28;;;;;;;16.27;69.34;102263.22;5021839;28;20441;-78
2022/06/17 02:00:25;;;;;;;10.93;7.50;;;;;;;16.25;69.22;102270.53;5024333;28;20037;-78
2022/06/17 02:02:55;;;;;;;11.18;7.40;;;;;;;16.22;69.44;102262.72;5025555;28;20450;-78
2022/06/17 02:05:24;;;;;;;11.77;7.38;;;;;;;16.18;70.08;102266.59;5024636;28;20090;-79
2022/06/17 02:07:54;;;;;;;8.55;7.45;;;;;;;16.16;70.28;102263.19;5022356;28;20482;-78
2022/06/17 02:10:22;;;;;;;8.70;6.80;;;;;;;16.12;71.06;102261.75;5004829;28;20029;-79
2022/06/17 02:12:48;;;;;;;10.85;7.15;;;;;;;16.11;70.35;102259.19;5023446;28;20091;-79
2022/06/17 02:15:14;;;;;;;11.60;6.80;;;;;;;16.10;70.40;102258.31;5029167;28;20022;-79
2022/06/17 02:17:43;;;;;;;8.07;7.13;;;;;;;16.08;70.56;102257.56;5035182;28;20006;-79
2022/06/17 02:20:11;;;;;;;9.90;6.90;;;;;;;16.11;70.76;102261.84;5033904;28;20034;-79
2022/06/17 02:22:37;;;;;;;10.05;7.18;;;;;;;16.07;70.67;102255.84;5021257;28;20501;-79
2022/06/17 02:25:25;;;;;;;9.32;7.50;;;;;;;16.12;69.65;102259.06;5020360;28;20037;-79
2022/06/17 02:27:55;;;;;;;8.82;7.40;;;;;;;16.05;70.20;102256.00;5020007;28;20393;-79
2022/06/17 02:30:20;;;;;;;8.85;7.40;;;;;;;16.10;69.36;102258.31;5018104;28;20030;-79
2022/06/17 02:32:47;;;;;;;12.63;7.72;;;;;;;16.06;68.63;102255.00;5020544;28;20477;-79
2022/06/17 02:35:49;;;;;;;8.30;7.47;;;;;;;16.09;67.69;102254.78;5013295;28;20613;-77
2022/06/17 02:38:18;;;;;;;10.40;7.60;;;;;;;16.07;67.84;102261.22;5001971;28;20046;-77
2022/06/17 02:40:51;;;;;;;12.70;8.00;;;;;;;16.05;68.46;102247.97;5003650;28;20088;-77
2022/06/17 02:43:29;;;;;;;11.13;7.80;;;;;;;16.08;67.83;102257.56;5013419;28;20026;-78
2022/06/17 02:46:00;;;;;;;9.68;7.75;;;;;;;16.08;66.78;102250.38;5018147;28;20385;-78
2022/06/17 02:48:40;;;;;;;11.68;7.60;;;;;;;16.06;67.20;102252.31;5021228;28;20026;-78
2022/06/17 02:51:06;;;;;;;9.27;8.20;;;;;;;16.08;67.55;102252.22;5015659;28;20033;-78
2022/06/17 02:53:34;;;;;;;10.98;8.07;;;;;;;16.04;67.43;102256.97;5020254;28;20045;-79
2022/06/17 02:56:04;;;;;;;14.82;7.68;;;;;;;16.04;67.71;102254.28;5019134;28;20034;-79
2022/06/17 02:58:47;;;;;;;9.48;7.57;;;;;;;16.03;67.06;102254.41;5003565;28;20068;-79
2022/06/17 03:01:25;;;;;;;13.27;8.25;;;;;;;16.03;66.60;102252.56;5021830;28;20032;-78
2022/06/17 03:03:53;;;;;;;9.03;8.13;;;;;;;16.01;66.99;102251.00;5018212;28;20029;-78
2022/06/17 03:06:25;;;;;;;9.90;7.65;;;;;;;16.02;66.78;102245.50;5007998;28;20784;-78
2022/06/17 03:08:53;;;;;;;9.82;7.70;;;;;;;15.99;67.74;102252.94;5021592;28;20076;-78
2022/06/17 03:11:21;;;;;;;15.73;8.07;;;;;;;16.00;66.24;102247.44;5022112;28;20025;-79
2022/06/17 03:14:04;;;;;;;11.63;8.38;;;;;;;16.00;66.26;102250.13;5004103;28;20030;-79
2022/06/17 03:16:30;;;;;;;10.85;8.57;;;;;;;15.98;66.55;102253.91;5020486;28;20022;-79
2022/06/17 03:18:55;;;;;;;11.15;8.40;;;;;;;15.97;67.07;102250.38;5018389;28;20106;-79
2022/06/17 03:21:23;;;;;;;13.32;8.88;;;;;;;15.95;67.41;102251.47;5018147;28;20033;-78
2022/06/17 03:23:59;;;;;;;10.30;8.43;;;;;;;15.94;67.79;102255.97;5002041;28;20076;-78
2022/06/17 03:26:30;;;;;;;10.60;8.52;;;;;;;15.93;68.99;102264.97;5018578;28;20029;-79
2022/06/17 03:28:58;;;;;;;11.80;8.57;;;;;;;15.93;66.99;102262.28;5021301;28;20029;-78
2022/06/17 03:31:36;;;;;;;10.98;8.93;;;;;;;15.95;67.39;102265.69;5019717;28;20061;-78
2022/06/17 03:34:08;;;;;;;12.18;8.80;;;;;;;15.96;67.23;102275.47;5020336;28;20144;-79
2022/06/17 03:36:44;;;;;;;15.93;9.52;;;;;;;15.95;65.84;102279.09;5020486;28;20041;-79
2022/06/17 03:39:34;;;;;;;11.55;9.10;;;;;;;15.98;66.43;102286.91;5021001;28;20030;-78
2022/06/17 03:42:25;;;;;;;12.85;9.82;;;;;;;16.01;66.06;102288.50;5010346;28;20025;-78
2022/06/17 03:45:00;;;;;;;10.38;9.25;;;;;;;15.98;66.59;102284.22;5024097;28;20117;-79
2022/06/17 03:47:40;;;;;;;11.70;8.95;;;;;;;16.03;66.55;102303.47;5013056;28;20034;-79
2022/06/17 03:50:08;;;;;;;13.85;9.30;;;;;;;16.07;67.14;102304.09;5025352;28;20482;-79
2022/06/17 03:52:57;;;;;;;11.40;9.60;;;;;;;16.12;67.11;102293.91;5016936;28;20049;-80
2022/06/17 03:55:23;;;;;;;12.45;9.38;;;;;;;16.11;67.01;102289.50;5023073;28;20048;-79
2022/06/17 03:57:52;;;;;;;13.35;9.52;;;;;;;16.15;66.71;102293.63;5016271;28;20041;-79
2022/06/17 04:00:39;;;;;;;13.70;9.35;;;;;;;16.15;66.84;102288.28;5026496;28;20029;-81
2022/06/17 04:03:10;;;;;;;11.70;9.30;;;;;;;16.18;66.88;102288.03;5022058;28;20029;-79
2022/06/17 04:05:38;;;;;;;12.57;8.95;;;;;;;16.23;66.73;102280.50;5005972;28;20029;-79
2022/06/17 04:08:03;;;;;;;12.30;9.63;;;;;;;16.26;66.97;102291.00;5019747;28;20068;-79
2022/06/17 04:10:31;;;;;;;13.30;10.00;;;;;;;16.28;66.78;102285.50;5020886;28;20053;-79
2022/06/17 04:12:56;;;;;;;11.30;9.23;;;;;;;16.30;66.56;102288.91;4999664;28;20465;-80
2022/06/17 04:15:39;;;;;;;12.40;9.45;;;;;;;16.33;66.75;102294.03;5021261;28;20033;-79
2022/06/17 04:18:04;;;;;;;14.15;9.30;;;;;;;16.34;67.03;102282.34;5016784;28;20391;-79
2022/06/17 04:20:54;;;;;;;11.73;9.43;;;;;;;16.35;66.72;102288.56;5016297;28;20113;-79
2022/06/17 04:23:23;;;;;;;15.80;10.15;;;;;;;16.38;66.81;102281.13;4993110;28;20036;-79
2022/06/17 04:25:48;;;;;;;11.25;9.40;;;;;;;16.41;66.46;102266.63;5021181;28;20030;-79
2022/06/17 04:28:20;;;;;;;11.90;9.53;;;;;;;16.42;66.34;102276.38;5012807;28;20030;-79
2022/06/17 04:30:51;;;;;;;13.77;9.73;;;;;;;16.44;66.12;102269.94;5017873;28;20280;-79
2022/06/17 04:33:37;;;;;;;15.38;9.40;;;;;;;16.49;65.89;102274.06;5003427;28;20017;-80
2022/06/17 04:36:07;;;;;;;12.80;9.15;;;;;;;16.50;66.29;102273.09;5020494;28;20049;-79
2022/06/17 04:38:45;;;;;;;13.73;9.52;;;;;;;16.53;65.92;102270.19;5019771;28;20112;-79
2022/06/17 04:41:15;;;;;;;10.75;9.35;;;;;;;16.57;65.80;102261.78;5017876;28;20104;-79
2022/06/17 04:43:47;;;;;;;16.25;9.75;;;;;;;16.58;65.70;102255.41;5018803;28;20041;-79
2022/06/17 04:46:17;;;;;;;11.50;10.32;;;;;;;16.63;65.39;102263.09;5008340;28;20114;-79
2022/06/17 04:48:42;;;;;;;11.85;9.50;;;;;;;16.66;65.93;102260.19;5006190;28;20024;-79
2022/06/17 04:51:08;;;;;;;13.00;9.30;;;;;;;16.70;65.27;102245.53;5010631;28;20090;-79
2022/06/17 04:53:38;;;;;;;12.45;9.55;;;;;;;16.74;65.08;102247.00;5026871;28;20038;-79
2022/06/17 04:56:08;;;;;;;12.02;8.60;;;;;;;16.76;65.11;102254.94;5026538;28;20032;-79
2022/06/17 04:58:33;;;;;;;14.77;9.13;;;;;;;16.80;64.65;102241.16;5029298;28;20085;-79
2022/06/17 05:00:58;;;;;;;14.23;8.15;;;;;;;16.85;64.69;102237.25;5015929;28;20057;-79
2022/06/17 05:03:28;;;;;;;13.10;8.80;;;;;;;16.90;63.97;102243.09;5027139;28;20470;-79
2022/06/17 05:05:53;;;;;;;10.23;8.15;;;;;;;16.95;63.66;102243.56;5008375;28;20657;-79
2022/06/17 05:08:22;;;;;;;13.63;8.07;;;;;;;17.02;63.21;102242.97;5027063;28;20034;-79
2022/06/17 05:10:54;;;;;;;11.05;7.82;;;;;;;17.10;63.62;102246.84;5026644;28;20037;-79
2022/06/17 05:13:33;;;;;;;12.25;8.27;;;;;;;17.15;63.20;102245.50;5027511;28;20037;-79
2022/06/17 05:15:58;;;;;;;9.02;7.60;;;;;;;17.22;62.79;102253.03;5014174;28;20065;-79
2022/06/17 05:18:24;;;;;;;10.40;7.70;;;;;;;17.26;62.42;102257.19;5026891;28;20030;-79
2022/06/17 05:20:49;;;;;;;11.38;8.30;;;;;;;17.29;62.51;102249.72;5026335;28;20072;-79
2022/06/17 05:23:16;;;;;;;11.63;7.68;;;;;;;17.33;62.20;102253.84;5027386;28;20028;-80
2022/06/17 05:25:44;;;;;;;12.77;7.82;;;;;;;17.35;62.57;102246.53;5016313;28;20056;-79
2022/06/17 05:28:16;;;;;;;15.18;7.82;;;;;;;17.42;63.73;102256.75;5019913;28;20031;-79
2022/06/17 05:30:47;;;;;;;12.73;8.48;;;;;;;17.46;63.08;102245.63;5025812;28;20085;-79
2022/06/17 05:33:14;;;;;;;14.43;8.75;;;;;;;17.49;62.80;102236.47;5020113;28;20049;-81
2022/06/17 05:35:40;;;;;;;12.23;8.40;;;;;;;17.54;62.66;102239.63;5024875;28;20462;-79
2022/06/17 05:38:05;;;;;;;11.38;7.88;;;;;;;17.57;63.08;102242.88;5027506;28;20026;-79
2022/06/17 05:40:33;;;;;;;10.10;8.68;;;;;;;17.63;62.92;102238.81;4989251;28;20076;-79
2022/06/17 05:42:58;;;;;;;15.27;8.40;;;;;;;17.70;61.97;102236.47;5003890;28;20025;-79
2022/06/17 05:45:26;;;;;;;11.87;8.40;;;;;;;17.79;62.58;102245.59;5022999;28;20048;-79
2022/06/17 05:47:52;;;;;;;13.98;8.10;;;;;;;17.86;62.37;102250.31;5020229;28;20273;-79
2022/06/17 05:50:19;;;;;;;14.52;8.10;;;;;;;17.89;62.11;102235.78;5024923;28;20030;-79
2022/06/17 05:53:00;;;;;;;13.75;8.13;;;;;;;17.91;61.53;102218.53;5009682;28;20026;-79
2022/06/17 05:55:29;;;;;;;14.95;7.90;;;;;;;17.97;61.18;102230.63;5010308;28;20109;-79
2022/06/17 05:57:55;;;;;;;12.75;7.88;;;;;;;18.00;62.47;102219.59;5015927;28;20076;-79
2022/06/17 06:00:23;;;;;;;9.77;7.15;;;;;;;18.04;61.93;102215.66;5026732;28;20065;-80
2022/06/17 06:02:49;;;;;;;8.25;7.20;;;;;;;18.10;62.95;102222.31;5019818;28;20057;-79
2022/06/17 06:05:18;;;;;;;10.95;7.38;;;;;;;18.15;61.80;102224.63;5027307;28;20022;-80
2022/06/17 06:07:43;;;;;;;14.48;7.20;;;;;;;18.18;60.98;102225.19;5032298;28;20053;-79
2022/06/17 06:10:12;;;;;;;13.40;7.10;;;;;;;18.20;60.65;102209.81;5034044;28;20061;-80
2022/06/17 06:12:53;;;;;;;12.00;6.53;;;;;;;18.26;60.65;102229.91;5019879;28;20284;-80
2022/06/17 06:15:20;;;;;;;9.73;6.63;;;;;;;18.27;59.64;102221.72;5021119;28;20108;-79
2022/06/17 06:17:46;;;;;;;8.70;6.00;;;;;;;18.29;59.97;102214.34;5029185;28;20081;-80
2022/06/17 06:20:12;;;;;;;9.18;6.07;;;;;;;18.34;60.34;102207.72;5040721;28;20053;-80
2022/06/17 06:22:38;;;;;;;9.20;6.63;;;;;;;18.36;58.76;102209.28;5035648;28;20100;-80
2022/06/17 06:25:03;;;;;;;9.13;5.53;;;;;;;18.37;58.93;102202.94;5032000;28;20061;-80
2022/06/17 06:27:29;;;;;;;12.50;6.13;;;;;;;18.43;60.04;102206.91;5038456;28;20065;-80
2022/06/17 06:29:54;;;;;;;9.73;5.40;;;;;;;18.47;59.30;102211.88;5027912;28;20032;-80
2022/06/17 06:32:20;;;;;;;9.50;5.53;;;;;;;18.53;59.59;102217.72;5035669;28;20042;-80
2022/06/17 06:34:47;;;;;;;10.38;5.85;;;;;;;18.60;57.94;102229.63;5027330;28;20058;-80
2022/06/17 06:37:13;;;;;;;8.70;6.18;;;;;;;18.65;58.57;102228.25;5029648;28;20038;-80
2022/06/17 06:39:38;;;;;;;9.02;5.22;;;;;;;18.72;59.23;102228.53;5033888;28;20077;-81
2022/06/17 06:42:04;;;;;;;10.60;5.25;;;;;;;18.84;58.49;102235.53;5029645;28;20057;-80
2022/06/17 06:44:29;;;;;;;10.75;5.43;;;;;;;18.94;58.75;102238.25;5026834;28;20049;-81
2022/06/17 06:46:55;;;;;;;9.85;5.40;;;;;;;19.02;57.99;102233.03;5030909;28;20045;-79
2022/06/17 06:49:20;;;;;;;9.10;5.07;;;;;;;19.14;58.34;102232.91;5027207;28;20409;-80
2022/06/17 06:51:45;;;;;;;10.17;5.27;;;;;;;19.29;57.98;102218.03;5016311;28;20117;-80
2022/06/17 06:54:10;;;;;;;13.40;5.73;;;;;;;19.49;58.18;102226.13;5023044;28;20311;-80
2022/06/17 06:56:36;;;;;;;9.32;4.93;;;;;;;19.75;57.14;102227.25;5022588;28;20721;-80
2022/06/17 06:59:01;;;;;;;7.68;4.97;;;;;;;19.97;57.39;102225.22;5020884;28;20028;-79
2022/06/17 07:01:27;;;;;;;9.38;5.28;;;;;;;20.25;55.80;102233.34;5012271;28;20425;-79
2022/06/17 07:03:52;;;;;;;9.27;5.00;;;;;;;20.55;56.13;102240.38;5017244;28;20124;-79
2022/06/17 07:06:17;;;;;;;7.82;4.68;;;;;;;20.91;54.32;102245.88;5016977;28;20347;-79
2022/06/17 07:08:43;;;;;;;7.65;4.80;;;;;;;21.26;53.21;102241.50;5031661;28;20038;-79
2022/06/17 07:11:08;;;;;;;8.20;4.35;;;;;;;21.56;52.45;102237.59;5030160;28;20030;-79
2022/06/17 07:13:34;;;;;;;9.43;4.45;;;;;;;21.78;49.85;102230.84;5023541;28;20023;-79
2022/06/17 07:16:01;;;;;;;10.13;4.22;;;;;;;22.02;49.48;102225.75;5022152;28;20072;-79
2022/06/17 07:18:29;;;;;;;8.18;4.30;;;;;;;22.12;49.10;102227.34;5014068;28;20386;-79
2022/06/17 07:20:58;;;;;;;12.43;4.38;;;;;;;22.32;48.34;102224.44;5021377;28;20386;-79
2022/06/17 07:23:29;;;;;;;4.30;3.55;;;;;;;22.55;48.62;102230.13;5005450;28;20033;-80
2022/06/17 07:25:57;;;;;;;8.02;3.90;;;;;;;22.78;48.06;102229.50;5021207;28;20036;-76
2022/06/17 07:28:23;;;;;;;8.27;3.55;;;;;;;23.04;47.06;102224.84;5019088;28;20117;-77
2022/06/17 07:30:50;;;;;;;7.97;4.13;;;;;;;23.32;45.66;102221.03;5025490;28;20068;-77
2022/06/17 07:33:18;;;;;;;7.25;3.65;;;;;;;23.54;45.25;102217.63;5024829;28;20036;-79
2022/06/17 07:35:45;;;;;;;8.95;3.60;;;;;;;23.77;44.92;102216.94;5025176;28;20022;-77
2022/06/17 07:41:05;;;;;;;6.57;3.20;;;;;;;24.06;44.16;102207.41;5011418;28;20053;-76
2022/06/17 07:43:31;;;;;;;5.35;3.30;;;;;;;24.26;43.88;102214.13;5030539;28;20014;-76
2022/06/17 07:45:56;;;;;;;5.60;3.38;;;;;;;24.48;44.26;102223.41;5033598;28;20045;-78
2022/06/17 07:48:22;;;;;;;6.78;3.25;;;;;;;24.76;42.58;102225.66;5032436;28;20049;-78
2022/06/17 07:50:47;;;;;;;5.60;2.80;;;;;;;25.03;42.51;102226.19;5032442;28;20030;-79
2022/06/17 07:53:13;;;;;;;5.00;3.15;;;;;;;25.23;41.44;102226.53;5026974;28;20045;-79
2022/06/17 07:55:41;;;;;;;8.90;3.75;;;;;;;25.50;41.89;102222.47;5023090;28;20045;-77
2022/06/17 07:58:07;;;;;;;7.93;2.90;;;;;;;25.89;43.05;102224.13;5013109;28;20045;-77
2022/06/17 08:00:37;;;;;;;4.53;2.88;;;;;;;26.12;39.73;102225.97;5026013;28;20037;-79
2022/06/17 08:03:04;;;;;;;8.85;3.00;;;;;;;26.39;38.94;102219.84;5021838;28;20054;-78
2022/06/17 08:05:30;;;;;;;6.57;3.30;;;;;;;26.66;38.62;102216.66;5013357;28;20033;-79
2022/06/17 08:07:56;;;;;;;5.57;3.05;;;;;;;26.69;38.26;102228.00;5013859;28;20041;-79
2022/06/17 08:10:27;;;;;;;11.00;3.40;;;;;;;26.84;37.89;102229.84;5013655;28;20478;-78
2022/06/17 08:12:52;;;;;;;6.97;4.03;;;;;;;26.98;36.33;102239.88;5013184;28;20040;-79
2022/06/17 08:15:18;;;;;;;5.32;2.72;;;;;;;27.09;36.64;102231.19;5013955;28;20366;-83
2022/06/17 08:17:43;;;;;;;8.60;2.95;;;;;;;27.29;37.31;102242.31;4997937;28;20172;-81
2022/06/17 08:20:22;;;;;;;8.88;3.00;;;;;;;27.80;37.18;102233.09;5013565;28;20022;-81
2022/06/17 08:22:47;;;;;;;8.23;2.50;;;;;;;28.16;36.10;102237.59;5008520;28;20034;-80
2022/06/17 08:25:13;;;;;;;5.20;2.75;;;;;;;28.27;35.11;102238.06;5011619;28;20037;-79
2022/06/17 08:28:07;;;;;;;8.32;3.00;;;;;;;28.66;36.39;102231.97;5010541;28;20105;-80
2022/06/17 08:30:36;;;;;;;5.45;2.63;;;;;;;28.70;33.22;102229.66;5008547;28;20528;-80
2022/06/17 08:33:02;;;;;;;4.20;2.15;;;;;;;28.95;32.96;102221.75;5011222;28;20030;-79
2022/06/17 08:35:41;;;;;;;3.58;2.30;;;;;;;29.15;33.95;102216.31;5011872;28;20049;-79
2022/06/17 08:38:18;;;;;;;8.63;2.20;;;;;;;29.21;32.96;102204.56;4992504;28;20036;-82
2022/06/17 08:40:53;;;;;;;9.70;2.63;;;;;;;29.38;33.25;102195.91;5007738;28;20044;-82
2022/06/17 08:43:56;;;;;;;3.67;2.30;;;;;;;29.38;33.27;102196.78;5011444;28;20531;-81
2022/06/17 08:46:52;;;;;;;6.07;2.38;;;;;;;29.50;32.69;102197.81;5011270;28;20041;-81
2022/06/17 08:49:55;;;;;;;5.03;2.70;;;;;;;29.44;33.70;102206.88;5002386;28;20033;-81
2022/06/17 08:52:57;;;;;;;6.72;2.28;;;;;;;29.54;33.58;102214.66;5006965;28;20029;-81
2022/06/17 08:55:31;;;;;;;3.70;1.98;;;;;;;29.58;30.23;102215.06;5012066;28;20045;-81
2022/06/17 08:58:18;;;;;;;35.72;11.77;;;;;;;29.79;33.07;102211.31;4995954;28;20026;-81
2022/06/17 09:00:56;;;;;;;8.82;2.55;;;;;;;30.01;30.58;102214.63;5011676;28;20026;-81
2022/06/17 09:03:33;;;;;;;6.95;2.20;;;;;;;30.28;29.09;102218.16;5010763;28;20356;-81
2022/06/17 09:06:19;;;;;;;8.48;2.50;;;;;;;30.44;29.78;102222.31;4995392;28;20049;-81
2022/06/17 09:08:55;;;;;;;5.70;2.22;;;;;;;30.38;29.14;102220.47;5012056;28;20690;-81
2022/06/17 09:11:29;;;;;;;7.85;3.03;;;;;;;30.70;28.82;102215.88;5006986;28;20030;-81
2022/06/17 09:14:00;;;;;;;4.57;2.55;;;;;;;30.58;27.18;102209.41;5015000;28;20121;-81
2022/06/17 09:16:44;;;;;;;5.65;3.00;;;;;;;30.59;27.73;102200.09;5009537;28;20029;-82
2022/06/17 09:19:12;;;;;;;6.07;3.30;;;;;;;30.52;27.50;102204.78;5013943;28;20026;-82
2022/06/17 09:21:49;;;;;;;5.18;2.70;;;;;;;30.73;28.52;102209.13;5013418;28;20483;-82
2022/06/17 09:24:24;;;;;;;9.43;2.67;;;;;;;30.91;28.67;102209.22;5013220;28;20439;-82
2022/06/17 09:27:02;;;;;;;6.32;2.97;;;;;;;31.26;29.26;102216.16;5012532;28;20049;-82
2022/06/17 09:29:46;;;;;;;8.02;2.88;;;;;;;31.65;28.92;102216.94;5008493;28;20386;-82
2022/06/17 09:32:21;;;;;;;5.53;2.67;;;;;;;31.88;27.24;102205.31;5012444;28;20034;-82
2022/06/17 09:34:56;;;;;;;6.95;2.50;;;;;;;31.95;27.21;102202.47;5009076;28;20058;-82
2022/06/17 09:37:51;;;;;;;6.63;2.65;;;;;;;32.08;28.40;102202.38;5004232;28;20100;-82
2022/06/17 09:40:39;;;;;;;5.88;2.50;;;;;;;32.14;27.14;102200.59;4991557;28;20042;-82
2022/06/17 09:43:22;;;;;;;8.35;2.72;;;;;;;32.25;26.94;102197.91;4999517;28;20046;-82
2022/06/17 09:45:55;;;;;;;7.40;2.47;;;;;;;32.11;26.39;102196.41;5015332;28;20038;-83
2022/06/17 09:48:28;;;;;;;5.68;2.03;;;;;;;32.34;27.32;102203.94;5016993;28;20458;-82
2022/06/17 09:51:08;;;;;;;6.50;2.33;;;;;;;32.94;27.20;102205.06;5011792;28;20034;-82
2022/06/17 09:53:40;;;;;;;4.78;2.42;;;;;;;32.92;26.89;102199.78;5015940;28;21288;-85
2022/06/17 09:56:22;;;;;;;11.77;2.80;;;;;;;33.21;26.82;102199.16;5023348;28;20048;-86
2022/06/17 09:59:19;;;;;;;6.28;2.28;;;;;;;33.47;26.50;102200.63;5011488;28;20056;-84
2022/06/17 10:01:46;;;;;;;6.03;1.98;;;;;;;33.45;25.24;102189.03;4998828;28;20026;-83
2022/06/17 10:04:13;;;;;;;6.82;2.20;;;;;;;33.62;25.93;102187.22;5013566;28;20079;-83
2022/06/17 10:06:41;;;;;;;6.85;2.30;;;;;;;33.81;24.95;102176.94;5008647;28;20023;-84
2022/06/17 10:09:09;;;;;;;;;;;;;;;34.26;26.13;102181.78;5015244;28;20101;-83
2022/06/17 10:11:58;;;;;;;5.78;1.92;;;;;;;33.91;24.30;102174.41;5016461;28;19909;-85
2022/06/17 10:14:35;;;;;;;5.35;1.92;;;;;;;33.93;24.26;102169.47;5015569;28;20033;-85
2022/06/17 10:20:17;;;;;;;4.97;1.60;;;;;;;34.15;22.87;102165.25;5016044;28;20049;-85
2022/06/17 10:22:55;;;;;;;2.83;1.35;;;;;;;34.20;23.02;102168.09;5015712;28;20041;-86
2022/06/17 10:25:30;;;;;;;3.70;1.63;;;;;;;34.20;23.83;102155.13;4994278;28;20398;-85
2022/06/17 10:28:23;;;;;;;3.72;1.70;;;;;;;34.22;24.09;102164.03;5013363;28;20022;-85
2022/06/17 10:31:16;;;;;;;4.18;1.92;;;;;;;34.35;24.60;102157.41;5007295;28;20087;-85
2022/06/17 10:33:43;;;;;;;2.97;1.60;;;;;;;34.47;22.93;102160.09;5015824;28;20117;-87
2022/06/17 10:36:08;;;;;;;5.93;1.60;;;;;;;34.87;22.56;102161.97;5016104;28;20033;-86
2022/06/17 10:38:41;;;;;;;5.50;1.63;;;;;;;35.13;22.84;102168.75;5014868;28;20068;-85
2022/06/17 10:41:07;;;;;;;3.30;1.55;;;;;;;35.45;22.58;102164.59;5014908;28;20273;-85
2022/06/17 10:43:41;;;;;;;3.15;1.50;;;;;;;35.60;22.93;102153.75;5015450;28;20068;-87
2022/06/17 10:46:15;;;;;;;5.85;1.60;;;;;;;35.48;21.81;102161.31;5016404;28;20026;-86
2022/06/17 10:48:48;;;;;;;5.07;1.63;;;;;;;35.54;22.20;102149.22;5017914;28;20513;-86
2022/06/17 10:51:15;;;;;;;3.75;1.63;;;;;;;35.74;22.15;102152.31;5022062;28;20037;-88
2022/06/17 10:53:45;;;;;;;2.80;1.13;;;;;;;35.34;22.22;102153.38;5010024;28;20038;-85
2022/06/17 10:56:36;;;;;;;5.88;1.42;;;;;;;35.30;21.05;102146.69;5015244;28;20034;-85
2022/06/17 10:59:10;;;;;;;3.70;1.60;;;;;;;35.20;21.74;102146.50;5011958;28;20069;-85
2022/06/17 11:01:47;;;;;;;2.83;1.65;;;;;;;35.60;22.92;102150.97;5012629;28;20406;-85
2022/06/17 11:04:18;;;;;;;5.20;1.57;;;;;;;35.73;21.96;102134.06;5015095;28;20034;-86
2022/06/17 11:07:13;;;;;;;1.83;1.45;;;;;;;36.24;22.76;102130.25;5015369;28;20057;-85
2022/06/17 11:09:45;;;;;;;3.08;1.35;;;;;;;36.04;19.87;102128.06;5006023;28;20022;-86
2022/06/17 11:12:21;;;;;;;4.25;1.85;;;;;;;36.17;20.80;102121.31;5015283;28;20427;-86
2022/06/17 11:14:46;;;;;;;2.88;1.10;;;;;;;36.30;20.94;102110.69;4996108;28;20022;-87
2022/06/17 11:17:20;;;;;;;3.40;1.30;;;;;;;36.29;20.84;102113.72;4995759;28;20044;-86
2022/06/17 11:19:49;;;;;;;5.15;1.63;;;;;;;36.43;21.00;102108.63;5014029;28;20105;-86
2022/06/17 11:22:25;;;;;;;3.20;1.42;;;;;;;36.54;21.49;102110.38;5014703;28;20034;-85
2022/06/17 11:24:56;;;;;;;2.00;1.45;;;;;;;36.36;19.90;102100.53;5012811;28;20030;-86
2022/06/17 11:27:41;;;;;;;2.33;1.30;;;;;;;36.63;21.09;102099.66;4998842;28;20034;-86
2022/06/17 11:30:30;;;;;;;2.75;1.58;;;;;;;36.85;21.62;102096.81;5016089;28;20382;-86
2022/06/17 11:32:59;;;;;;;3.20;1.25;;;;;;;36.41;20.31;102091.44;5004266;28;20030;-85
2022/06/17 11:35:29;;;;;;;1.92;1.10;;;;;;;36.21;19.83;102090.09;4995527;28;20079;-85
2022/06/17 11:37:57;;;;;;;3.53;1.38;;;;;;;36.21;19.58;102092.03;4977546;28;20108;-86
2022/06/17 11:40:30;;;;;;;2.38;1.45;;;;;;;36.22;20.69;102094.56;5003386;28;20033;-86
2022/06/17 11:42:59;;;;;;;2.63;1.35;;;;;;;36.14;19.88;102089.50;5006028;28;20026;-86
2022/06/17 11:45:28;;;;;;;2.05;1.20;;;;;;;36.19;20.32;102080.38;5014293;28;20026;-84
2022/06/17 11:47:59;;;;;;;2.78;1.10;;;;;;;36.24;19.18;102078.56;4996592;28;20034;-86
2022/06/17 11:50:30;;;;;;;2.97;1.67;;;;;;;36.16;20.25;102084.53;5015007;28;20084;-86